Time;durP1;ratioP1;P1;durP2;ratioP2;P2;SDS_P1;SDS_P2;PMS_P1;PMS_P2;Temp;Humidity;BMP_temperature;BMP_pressure;BME280_temperature;BME280_humidity;BME280_pressure;Samples;Min_cycle;Max_cycle;Signal;HPM_P1;HPM_P2
2024/01/30 00:01:19;;;;;;;22.65;14.05;;;;;;;11.85;86.25;102162.81;5018078;28;20057;-65
2024/01/30 00:03:47;;;;;;;21.25;14.13;;;;;;;11.96;86.91;102165.22;5013779;28;20045;-64
2024/01/30 00:06:14;;;;;;;22.90;14.02;;;;;;;11.98;86.56;102162.16;5009531;28;20054;-64
2024/01/30 00:08:42;;;;;;;18.95;13.25;;;;;;;12.04;85.59;102161.03;5024037;28;20104;-63
2024/01/30 00:11:09;;;;;;;22.27;13.77;;;;;;;12.22;85.36;102160.34;5009584;28;20055;-64
2024/01/30 00:13:37;;;;;;;21.38;12.98;;;;;;;12.19;84.82;102155.38;5009079;28;20509;-65
2024/01/30 00:16:05;;;;;;;20.88;13.52;;;;;;;12.11;84.91;102161.53;5009182;28;20050;-64
2024/01/30 00:18:32;;;;;;;23.75;13.05;;;;;;;12.11;85.41;102167.03;5009294;28;20057;-64
2024/01/30 00:21:00;;;;;;;19.38;12.35;;;;;;;11.97;85.34;102161.34;5009370;28;20500;-64
2024/01/30 00:23:28;;;;;;;18.05;12.63;;;;;;;11.89;86.41;102167.47;5008295;28;20054;-64
2024/01/30 00:25:55;;;;;;;21.80;12.60;;;;;;;11.91;86.65;102156.13;5008990;28;20046;-63
2024/01/30 00:28:24;;;;;;;21.05;12.68;;;;;;;12.01;86.20;102165.19;5009185;28;20061;-64
2024/01/30 00:30:51;;;;;;;19.77;12.15;;;;;;;12.04;85.83;102169.31;5009973;28;20081;-63
2024/01/30 00:33:19;;;;;;;21.52;12.48;;;;;;;12.02;85.57;102169.59;5005389;28;20638;-63
2024/01/30 00:35:46;;;;;;;21.90;12.57;;;;;;;12.11;85.58;102172.56;5008566;28;20060;-65
2024/01/30 00:38:14;;;;;;;17.77;12.00;;;;;;;12.03;86.44;102170.44;5002455;28;20060;-63
2024/01/30 00:40:41;;;;;;;15.88;11.57;;;;;;;12.10;85.92;102171.75;5007505;28;20515;-63
2024/01/30 00:43:08;;;;;;;20.95;11.40;;;;;;;12.05;85.88;102174.53;5009884;28;20481;-63
2024/01/30 00:45:36;;;;;;;17.90;11.25;;;;;;;11.99;86.17;102180.41;5010428;28;20058;-63
2024/01/30 00:48:04;;;;;;;20.70;11.80;;;;;;;11.94;86.18;102167.44;5003210;28;20049;-63
2024/01/30 00:50:31;;;;;;;17.30;12.18;;;;;;;12.04;86.31;102164.63;5010147;28;20080;-63
2024/01/30 00:52:58;;;;;;;18.08;10.75;;;;;;;12.39;85.42;102177.31;5006800;28;20069;-63
2024/01/30 00:55:25;;;;;;;17.80;11.75;;;;;;;12.87;83.10;102164.38;5008236;28;20409;-63
2024/01/30 00:57:53;;;;;;;15.48;10.30;;;;;;;12.81;82.32;102163.63;5008127;28;20080;-62
2024/01/30 01:00:20;;;;;;;14.57;10.63;;;;;;;12.59;82.96;102162.47;5006544;28;20050;-63
2024/01/30 01:02:48;;;;;;;16.30;10.00;;;;;;;12.67;83.50;102165.44;5011133;28;20064;-63
2024/01/30 01:05:15;;;;;;;16.40;10.15;;;;;;;12.46;84.09;102177.78;5010506;28;20061;-64
2024/01/30 01:08:04;;;;;;;16.00;10.32;;;;;;;12.45;84.33;102163.16;5006021;28;20058;-63
2024/01/30 01:10:35;;;;;;;14.00;9.63;;;;;;;12.66;84.04;102171.25;5009543;28;20062;-63
2024/01/30 01:13:05;;;;;;;18.02;9.15;;;;;;;12.51;84.29;102165.84;4991044;28;20057;-63
2024/01/30 01:15:32;;;;;;;14.18;9.35;;;;;;;12.63;84.63;102161.59;5020783;28;20049;-63
2024/01/30 01:17:59;;;;;;;13.77;9.10;;;;;;;12.77;83.91;102159.78;5018875;28;20058;-63
2024/01/30 01:20:26;;;;;;;14.30;8.82;;;;;;;12.61;84.47;102161.06;5006300;28;20509;-63
2024/01/30 01:22:54;;;;;;;15.15;8.98;;;;;;;12.72;84.55;102159.00;5006071;28;20058;-64
2024/01/30 01:25:21;;;;;;;16.05;8.23;;;;;;;13.10;83.42;102158.03;5004861;28;20046;-64
2024/01/30 01:27:51;;;;;;;13.43;7.43;;;;;;;13.24;82.06;102158.97;5009641;28;20412;-66
2024/01/30 01:30:22;;;;;;;13.82;7.93;;;;;;;13.10;83.04;102160.81;5005302;28;20046;-63
2024/01/30 01:33:06;;;;;;;13.60;7.65;;;;;;;13.27;82.37;102161.16;5011364;28;20061;-64
2024/01/30 01:35:37;;;;;;;12.77;8.20;;;;;;;13.16;82.31;102156.88;5008187;28;20049;-63
2024/01/30 01:38:05;;;;;;;15.00;7.47;;;;;;;13.04;82.97;102156.47;5024501;28;20049;-63
2024/01/30 01:40:32;;;;;;;11.65;7.45;;;;;;;13.01;82.94;102157.00;5011808;28;20520;-64
2024/01/30 01:43:09;;;;;;;12.82;7.63;;;;;;;12.88;84.19;102164.09;5012290;28;20056;-63
2024/01/30 01:45:43;;;;;;;15.00;7.28;;;;;;;13.05;83.88;102167.25;5009178;28;20050;-63
2024/01/30 01:48:12;;;;;;;12.70;7.40;;;;;;;13.17;83.36;102156.56;5006196;28;20060;-62
2024/01/30 01:50:39;;;;;;;12.88;6.72;;;;;;;13.03;83.60;102157.56;5011065;28;20425;-63
2024/01/30 01:53:08;;;;;;;14.65;6.95;;;;;;;13.15;83.66;102164.34;5011342;28;20050;-63
2024/01/30 01:55:35;;;;;;;11.75;6.38;;;;;;;13.25;83.23;102157.88;4993017;28;20052;-63
2024/01/30 01:58:03;;;;;;;10.43;6.28;;;;;;;13.16;83.15;102170.72;5043039;28;20060;-65
2024/01/30 02:00:31;;;;;;;11.80;6.78;;;;;;;13.00;84.16;102163.69;5011477;28;20061;-65
2024/01/30 02:02:58;;;;;;;12.75;6.82;;;;;;;12.93;85.18;102164.03;4993747;28;20828;-63
2024/01/30 02:05:26;;;;;;;12.85;6.85;;;;;;;13.13;84.70;102162.97;4992838;28;20054;-64
2024/01/30 02:07:54;;;;;;;11.80;7.32;;;;;;;12.92;84.63;102159.59;5011478;28;20058;-63
2024/01/30 02:10:21;;;;;;;14.27;7.03;;;;;;;12.64;87.16;102167.94;5009457;28;20064;-64
2024/01/30 02:12:50;;;;;;;17.00;7.00;;;;;;;12.53;87.80;102158.94;5010428;28;20064;-63
2024/01/30 02:15:18;;;;;;;11.70;6.68;;;;;;;12.64;87.46;102166.00;5011248;28;20057;-64
2024/01/30 02:17:45;;;;;;;12.25;6.72;;;;;;;12.43;88.00;102157.06;5011452;28;20057;-62
2024/01/30 02:20:15;;;;;;;10.85;6.18;;;;;;;12.58;88.45;102153.34;5012189;28;20058;-63
2024/01/30 02:22:43;;;;;;;17.98;6.53;;;;;;;12.46;88.68;102156.50;5010485;28;20065;-64
2024/01/30 02:25:12;;;;;;;15.52;6.32;;;;;;;12.28;89.94;102148.94;5027576;28;20054;-63
2024/01/30 02:27:39;;;;;;;13.75;6.60;;;;;;;12.60;89.26;102150.28;5013422;28;20062;-63
2024/01/30 02:30:07;;;;;;;10.75;5.85;;;;;;;12.63;88.70;102142.25;5011998;28;20061;-64
2024/01/30 02:32:35;;;;;;;10.50;5.50;;;;;;;12.69;88.80;102138.31;5009283;28;20072;-63
2024/01/30 02:35:03;;;;;;;12.98;6.45;;;;;;;12.65;88.86;102140.00;5008028;28;20121;-63
2024/01/30 02:37:30;;;;;;;10.52;5.80;;;;;;;12.71;88.61;102144.34;5008068;28;20057;-58
2024/01/30 02:39:57;;;;;;;11.18;5.63;;;;;;;12.94;87.90;102148.25;5005531;28;20057;-58
2024/01/30 02:42:25;;;;;;;11.82;6.00;;;;;;;13.06;86.69;102148.69;5000949;28;20081;-58
2024/01/30 02:44:52;;;;;;;11.32;5.75;;;;;;;12.98;86.61;102152.91;5009026;28;20045;-58
2024/01/30 02:47:19;;;;;;;9.00;5.45;;;;;;;12.78;87.78;102153.13;5008507;28;20054;-57
2024/01/30 02:49:46;;;;;;;12.02;6.00;;;;;;;12.84;88.00;102143.66;5008864;28;20060;-59
2024/01/30 02:52:14;;;;;;;13.23;6.40;;;;;;;12.75;88.02;102141.81;5024064;28;20066;-54
2024/01/30 02:54:41;;;;;;;11.40;5.45;;;;;;;12.86;88.20;102137.84;5010158;28;20185;-58
2024/01/30 02:57:09;;;;;;;12.73;5.93;;;;;;;12.91;88.29;102135.00;5009192;28;20053;-58
2024/01/30 02:59:36;;;;;;;10.60;5.50;;;;;;;13.02;87.87;102128.28;5039825;28;20068;-58
2024/01/30 03:02:03;;;;;;;15.35;6.13;;;;;;;13.00;87.44;102131.31;5010067;28;20054;-57
2024/01/30 03:04:31;;;;;;;10.77;5.65;;;;;;;13.03;87.28;102143.75;5008611;28;20046;-60
2024/01/30 03:06:58;;;;;;;14.93;6.35;;;;;;;12.88;87.83;102141.97;5015591;28;20058;-58
2024/01/30 03:09:26;;;;;;;14.70;5.43;;;;;;;12.73;89.06;102139.34;5007898;28;20056;-63
2024/01/30 03:11:53;;;;;;;14.77;6.10;;;;;;;12.51;90.02;102140.97;5009626;28;20514;-63
2024/01/30 03:14:20;;;;;;;13.82;6.15;;;;;;;12.58;90.44;102150.59;5001397;28;20297;-63
2024/01/30 03:16:47;;;;;;;12.73;5.53;;;;;;;12.32;91.94;102144.50;4991116;28;20086;-63
2024/01/30 03:19:15;;;;;;;11.88;5.85;;;;;;;12.59;91.32;102143.94;5005506;28;20068;-64
2024/01/30 03:21:42;;;;;;;11.40;5.75;;;;;;;12.80;90.10;102133.47;5005319;28;20062;-64
2024/01/30 03:24:09;;;;;;;12.70;5.45;;;;;;;12.85;89.44;102145.31;4991995;28;20053;-64
2024/01/30 03:26:37;;;;;;;12.65;5.93;;;;;;;12.85;88.60;102145.31;5012164;28;20046;-63
2024/01/30 03:29:04;;;;;;;12.32;5.82;;;;;;;12.72;89.64;102146.03;5001567;28;20058;-63
2024/01/30 03:31:31;;;;;;;14.10;6.17;;;;;;;12.57;91.03;102148.13;4940195;28;1981039;-63
2024/01/30 03:33:59;;;;;;;13.77;5.90;;;;;;;12.42;92.20;102146.31;5024214;28;20057;-63
2024/01/30 03:36:26;;;;;;;12.63;5.45;;;;;;;12.75;91.51;102152.88;5009696;28;20050;-63
2024/01/30 03:38:53;;;;;;;14.25;5.60;;;;;;;12.70;90.68;102145.47;5008435;28;20065;-63
2024/01/30 03:41:21;;;;;;;11.00;5.90;;;;;;;12.67;90.06;102154.38;5008320;28;20053;-64
2024/01/30 03:43:48;;;;;;;12.45;5.68;;;;;;;12.66;90.42;102151.91;5008977;28;20050;-63
2024/01/30 03:46:15;;;;;;;14.43;5.72;;;;;;;12.70;90.78;102152.94;5007232;28;20124;-63
2024/01/30 03:48:43;;;;;;;12.35;5.97;;;;;;;12.90;90.20;102148.00;5013789;28;20049;-63
2024/01/30 03:51:14;;;;;;;12.63;5.78;;;;;;;12.86;89.36;102132.31;5011676;28;20064;-64
2024/01/30 03:53:42;;;;;;;17.38;5.80;;;;;;;12.72;90.18;102137.72;5023483;28;20046;-63
2024/01/30 03:56:09;;;;;;;11.15;5.30;;;;;;;12.66;90.86;102132.56;5007921;28;20433;-62
2024/01/30 03:58:37;;;;;;;10.18;5.60;;;;;;;12.76;90.53;102124.94;4993582;28;20054;-63
2024/01/30 04:01:04;;;;;;;11.30;5.10;;;;;;;12.56;90.99;102138.16;5015620;28;20555;-63
2024/01/30 04:03:32;;;;;;;11.73;5.63;;;;;;;12.53;92.04;102156.16;5009019;28;20541;-57
2024/01/30 04:06:00;;;;;;;14.18;6.20;;;;;;;12.65;91.07;102137.25;5001985;28;20050;-58
2024/01/30 04:08:27;;;;;;;13.23;6.45;;;;;;;12.67;90.94;102142.47;4989958;28;20062;-57
2024/01/30 04:10:55;;;;;;;15.23;5.60;;;;;;;12.66;91.01;102138.88;4992836;28;20068;-58
2024/01/30 04:13:22;;;;;;;12.95;6.05;;;;;;;12.68;90.80;102136.66;5008984;28;20068;-64
2024/01/30 04:15:49;;;;;;;13.18;6.13;;;;;;;12.60;91.26;102128.19;5008867;28;20528;-66
2024/01/30 04:18:17;;;;;;;11.77;5.78;;;;;;;12.54;91.82;102132.94;5007622;28;20062;-63
2024/01/30 04:20:45;;;;;;;12.00;5.55;;;;;;;12.51;92.24;102132.69;5041676;28;20826;-63
2024/01/30 04:23:12;;;;;;;13.10;6.32;;;;;;;12.69;91.56;102121.72;5019913;28;20144;-64
2024/01/30 04:25:39;;;;;;;11.55;6.03;;;;;;;12.73;91.25;102130.22;5008569;28;20085;-61
2024/01/30 04:28:07;;;;;;;9.32;5.85;;;;;;;12.67;90.97;102125.91;5024340;28;20524;-64
2024/01/30 04:30:34;;;;;;;12.68;5.82;;;;;;;12.71;90.81;102130.53;5008925;28;20061;-65
2024/01/30 04:33:01;;;;;;;13.43;5.50;;;;;;;12.66;91.19;102129.78;5007059;28;20050;-63
2024/01/30 04:35:29;;;;;;;13.60;5.85;;;;;;;12.23;92.72;102132.41;5008704;28;20054;-64
2024/01/30 04:37:56;;;;;;;16.17;6.13;;;;;;;12.41;93.30;102134.44;5008182;28;20057;-64
2024/01/30 04:40:23;;;;;;;12.77;5.78;;;;;;;12.56;92.97;102136.22;5008737;28;20069;-64
2024/01/30 04:42:51;;;;;;;15.45;6.00;;;;;;;12.46;92.96;102125.28;5008123;28;20042;-63
2024/01/30 04:45:18;;;;;;;15.40;5.97;;;;;;;12.24;93.74;102130.47;5008880;28;20053;-63
2024/01/30 04:47:46;;;;;;;14.05;6.00;;;;;;;12.38;93.84;102135.03;5006742;28;20465;-63
2024/01/30 04:50:13;;;;;;;11.07;5.88;;;;;;;12.54;93.06;102132.94;5007542;28;20049;-64
2024/01/30 04:52:40;;;;;;;12.35;5.70;;;;;;;12.51;93.08;102141.81;5024408;28;20054;-63
2024/01/30 04:55:08;;;;;;;11.98;6.32;;;;;;;12.69;92.30;102137.50;5009724;28;20053;-64
2024/01/30 04:57:36;;;;;;;11.75;5.45;;;;;;;12.41;93.47;102141.94;5009752;28;20064;-64
2024/01/30 05:00:05;;;;;;;14.32;5.88;;;;;;;12.44;93.12;102146.84;5007370;28;20077;-64
2024/01/30 05:02:32;;;;;;;14.38;6.30;;;;;;;12.50;92.81;102136.59;5007193;28;20050;-63
2024/01/30 05:04:59;;;;;;;10.27;5.60;;;;;;;12.59;92.36;102148.66;5007167;28;20141;-58
2024/01/30 05:07:27;;;;;;;13.40;5.93;;;;;;;12.55;92.25;102151.19;5006182;28;20057;-57
2024/01/30 05:09:54;;;;;;;11.82;5.90;;;;;;;12.72;91.99;102153.47;5040171;28;20525;-59
2024/01/30 05:12:26;;;;;;;13.75;5.78;;;;;;;12.70;91.76;102150.19;5006691;28;20625;-58
2024/01/30 05:14:53;;;;;;;12.18;6.22;;;;;;;12.44;92.53;102144.94;5007976;28;20057;-57
2024/01/30 05:17:20;;;;;;;12.82;6.22;;;;;;;12.43;93.26;102150.72;5008132;28;20064;-56
2024/01/30 05:19:48;;;;;;;13.95;6.15;;;;;;;12.56;92.93;102146.47;5006564;28;20061;-56
2024/01/30 05:22:17;;;;;;;13.13;6.18;;;;;;;12.63;91.96;102161.59;5007510;28;20053;-56
2024/01/30 05:24:45;;;;;;;19.10;7.07;;;;;;;12.63;92.11;102169.88;5005780;28;20065;-58
2024/01/30 05:27:15;;;;;;;12.80;5.53;;;;;;;12.59;91.90;102168.00;5007974;28;20050;-59
2024/01/30 05:29:43;;;;;;;16.65;6.38;;;;;;;12.48;92.53;102180.25;5038028;28;20069;-59
2024/01/30 05:32:10;;;;;;;13.80;6.75;;;;;;;12.61;91.95;102176.81;5038837;28;20214;-62
2024/01/30 05:34:38;;;;;;;13.88;6.22;;;;;;;12.79;91.57;102181.59;5007428;28;20528;-63
2024/01/30 05:37:05;;;;;;;14.50;6.30;;;;;;;12.96;90.28;102191.09;5007765;28;20057;-58
2024/01/30 05:39:33;;;;;;;11.77;6.40;;;;;;;12.76;90.56;102184.97;5007362;28;20456;-57
2024/01/30 05:42:00;;;;;;;14.57;5.88;;;;;;;12.94;90.28;102186.97;5007967;28;20050;-58
2024/01/30 05:44:27;;;;;;;11.18;5.68;;;;;;;12.99;89.77;102189.69;5040739;28;20069;-57
2024/01/30 05:46:55;;;;;;;13.90;5.78;;;;;;;13.04;89.27;102198.78;5039523;28;20045;-59
2024/01/30 05:49:22;;;;;;;13.27;6.13;;;;;;;13.08;88.61;102191.53;5022445;28;20444;-64
2024/01/30 05:51:49;;;;;;;15.80;5.82;;;;;;;13.05;88.44;102200.44;5008853;28;20058;-63
2024/01/30 05:54:17;;;;;;;13.52;5.85;;;;;;;12.85;89.44;102199.81;5008563;28;20050;-63
2024/01/30 05:56:44;;;;;;;13.57;5.93;;;;;;;12.86;89.69;102207.81;5007963;28;20049;-64
2024/01/30 05:59:11;;;;;;;11.82;6.30;;;;;;;12.85;89.58;102203.38;5006200;28;20061;-65
2024/01/30 06:01:46;;;;;;;14.98;6.88;;;;;;;12.89;89.82;102203.63;5006749;28;20049;-63
2024/01/30 06:04:14;;;;;;;15.52;6.47;;;;;;;12.95;89.93;102213.53;5005252;28;20497;-64
2024/01/30 06:06:41;;;;;;;14.10;6.15;;;;;;;13.02;89.33;102217.59;5005574;28;20057;-64
2024/01/30 06:09:09;;;;;;;12.82;6.25;;;;;;;12.80;90.23;102220.03;5006235;28;20054;-65
2024/01/30 06:11:36;;;;;;;13.98;6.10;;;;;;;12.87;90.46;102212.22;5038363;28;20461;-63
2024/01/30 06:14:03;;;;;;;11.75;6.13;;;;;;;13.01;89.49;102218.69;5007716;28;20062;-63
2024/01/30 06:16:30;;;;;;;13.32;6.18;;;;;;;12.98;88.93;102224.00;5021794;28;20069;-63
2024/01/30 06:18:59;;;;;;;12.05;6.05;;;;;;;12.98;89.37;102224.00;5038763;28;20061;-63
2024/01/30 06:21:26;;;;;;;11.93;6.22;;;;;;;13.06;87.50;102224.19;5022104;28;20062;-63
2024/01/30 06:23:53;;;;;;;13.32;6.15;;;;;;;12.76;89.60;102224.47;5007791;28;20069;-63
2024/01/30 06:26:21;;;;;;;11.77;6.70;;;;;;;12.79;89.88;102225.84;5011336;28;20049;-63
2024/01/30 06:28:48;;;;;;;16.00;6.28;;;;;;;12.87;89.92;102233.50;5007219;28;20064;-71
2024/01/30 06:31:15;;;;;;;12.70;6.60;;;;;;;12.86;88.88;102235.47;5011318;28;20094;-66
2024/01/30 06:33:42;;;;;;;21.80;6.78;;;;;;;13.03;89.29;102240.56;5011300;28;20061;-66
2024/01/30 06:36:10;;;;;;;13.15;5.75;;;;;;;13.00;88.45;102236.44;5008684;28;20046;-66
2024/01/30 06:38:37;;;;;;;13.68;6.60;;;;;;;12.87;89.33;102239.88;5009469;28;20050;-68
2024/01/30 06:41:05;;;;;;;16.13;7.45;;;;;;;12.78;89.82;102243.56;4998863;28;20061;-63
2024/01/30 06:43:32;;;;;;;12.27;6.25;;;;;;;12.74;90.63;102234.19;5011012;28;20071;-66
2024/01/30 06:46:00;;;;;;;18.00;7.47;;;;;;;13.10;88.41;102246.56;5040532;28;20057;-63
2024/01/30 06:48:27;;;;;;;15.30;7.43;;;;;;;12.75;90.02;102238.59;5009580;28;20076;-64
2024/01/30 06:51:29;;;;;;;13.93;7.82;;;;;;;12.80;90.15;102236.63;5040108;28;20054;-64
2024/01/30 06:53:59;;;;;;;15.05;7.32;;;;;;;12.93;89.56;102248.94;5009671;28;20065;-64
2024/01/30 06:56:28;;;;;;;16.77;6.90;;;;;;;12.89;89.80;102248.69;5024574;28;20050;-64
2024/01/30 06:58:55;;;;;;;14.05;6.68;;;;;;;12.88;89.53;102252.59;5009266;28;20061;-65
2024/01/30 07:01:29;;;;;;;12.82;6.75;;;;;;;12.81;90.30;102256.81;5008424;28;20524;-64
2024/01/30 07:03:57;;;;;;;14.90;7.47;;;;;;;12.81;90.26;102254.03;5009406;28;20045;-65
2024/01/30 07:06:25;;;;;;;16.85;6.88;;;;;;;12.87;90.33;102258.38;5011951;28;20050;-65
2024/01/30 07:08:52;;;;;;;14.40;6.93;;;;;;;13.00;89.73;102261.31;5019605;28;20053;-64
2024/01/30 07:11:23;;;;;;;14.38;6.90;;;;;;;13.03;89.30;102268.22;5009095;28;20575;-63
2024/01/30 07:13:51;;;;;;;11.73;6.40;;;;;;;12.97;89.32;102270.19;5010367;28;20057;-64
2024/01/30 07:16:18;;;;;;;17.58;7.28;;;;;;;12.93;90.00;102274.66;5010251;28;20077;-64
2024/01/30 07:18:46;;;;;;;14.25;7.38;;;;;;;12.90;89.60;102291.81;5015308;28;20057;-63
2024/01/30 07:21:14;;;;;;;14.60;6.95;;;;;;;13.11;89.48;102285.00;5011487;28;20145;-64
2024/01/30 07:23:41;;;;;;;17.10;6.68;;;;;;;13.13;88.92;102281.94;5018411;28;20057;-66
2024/01/30 07:26:09;;;;;;;19.15;7.22;;;;;;;12.83;89.99;102279.47;5009474;28;20065;-66
2024/01/30 07:28:37;;;;;;;20.55;7.70;;;;;;;12.83;91.06;102285.78;5007737;28;20575;-65
2024/01/30 07:31:05;;;;;;;17.23;7.20;;;;;;;12.75;91.22;102280.91;5006802;28;20056;-64
2024/01/30 07:33:32;;;;;;;17.17;7.10;;;;;;;12.83;91.54;102290.53;5008933;28;20074;-64
2024/01/30 07:35:59;;;;;;;19.08;7.88;;;;;;;12.64;92.32;102297.88;5008061;28;20058;-64
2024/01/30 07:38:27;;;;;;;15.30;7.90;;;;;;;12.78;91.88;102294.13;5009524;28;20515;-64
2024/01/30 07:40:54;;;;;;;17.85;8.63;;;;;;;12.83;91.43;102290.53;4991413;28;20065;-64
2024/01/30 07:43:25;;;;;;;19.13;7.80;;;;;;;12.80;91.56;102304.91;5007067;28;20061;-64
2024/01/30 07:45:56;;;;;;;18.23;7.70;;;;;;;12.74;91.95;102306.09;5010065;28;20057;-64
2024/01/30 07:48:24;;;;;;;22.65;9.05;;;;;;;12.82;91.79;102313.75;5026615;28;20436;-64
2024/01/30 07:50:51;;;;;;;20.92;8.93;;;;;;;12.67;93.15;102325.78;5012020;28;20062;-63
2024/01/30 07:53:19;;;;;;;18.55;8.88;;;;;;;12.49;93.96;102315.41;5039202;28;20910;-64
2024/01/30 07:55:47;;;;;;;17.67;8.45;;;;;;;12.64;93.48;102320.78;5020717;28;20057;-63
2024/01/30 07:58:14;;;;;;;19.58;8.40;;;;;;;12.59;93.58;102325.56;5006395;28;20049;-59
2024/01/30 08:00:41;;;;;;;19.83;8.70;;;;;;;12.63;93.52;102332.97;5015302;28;20065;-59
2024/01/30 08:03:09;;;;;;;20.75;8.10;;;;;;;12.54;93.57;102328.34;5013329;28;20050;-61
2024/01/30 08:05:36;;;;;;;18.13;8.18;;;;;;;12.69;94.57;102339.31;5013011;28;20060;-60
2024/01/30 08:08:04;;;;;;;21.17;8.30;;;;;;;12.72;97.59;102334.03;5006097;28;20431;-59
2024/01/30 08:10:31;;;;;;;21.77;8.88;;;;;;;12.89;99.13;102334.44;5023383;28;20061;-54
2024/01/30 08:12:58;;;;;;;19.33;7.85;;;;;;;12.98;97.85;102341.00;5014010;28;20061;-58
2024/01/30 08:15:26;;;;;;;13.55;7.20;;;;;;;12.91;93.97;102347.97;5015099;28;20064;-59
2024/01/30 08:17:58;;;;;;;16.55;7.22;;;;;;;12.83;93.26;102352.16;5014230;28;20052;-56
2024/01/30 08:20:26;;;;;;;18.00;7.57;;;;;;;12.84;92.46;102353.84;5027753;28;20065;-56
2024/01/30 08:22:53;;;;;;;15.57;7.63;;;;;;;12.77;92.34;102353.34;5017323;28;20042;-58
2024/01/30 08:25:21;;;;;;;16.88;7.90;;;;;;;12.80;92.40;102360.22;4997888;28;20057;-58
2024/01/30 08:27:48;;;;;;;17.00;8.43;;;;;;;12.92;92.14;102367.03;5016649;28;20038;-56
2024/01/30 08:30:16;;;;;;;19.45;7.95;;;;;;;12.98;91.51;102368.66;5027515;28;20092;-58
2024/01/30 08:32:43;;;;;;;14.98;7.72;;;;;;;12.93;91.23;102371.47;5025103;28;20069;-57
2024/01/30 08:35:13;;;;;;;18.80;7.88;;;;;;;12.90;91.54;102369.25;5007354;28;20050;-58
2024/01/30 08:37:41;;;;;;;16.35;7.70;;;;;;;13.04;91.45;102375.81;5024369;28;20045;-57
2024/01/30 08:40:09;;;;;;;18.63;8.13;;;;;;;13.11;91.18;102373.53;5039025;28;20050;-55
2024/01/30 08:42:36;;;;;;;14.10;8.13;;;;;;;13.06;90.35;102376.34;5006045;28;20064;-58
2024/01/30 08:45:04;;;;;;;22.15;7.97;;;;;;;13.10;91.34;102380.19;5041262;28;21337;-58
2024/01/30 08:47:33;;;;;;;20.17;9.85;;;;;;;13.03;90.69;102389.94;5009823;28;20060;-55
2024/01/30 08:50:00;;;;;;;22.08;9.07;;;;;;;13.09;90.19;102378.53;5008011;28;20429;-57
2024/01/30 08:52:28;;;;;;;20.40;8.30;;;;;;;13.07;89.90;102391.03;5014932;28;20731;-56
2024/01/30 08:54:55;;;;;;;18.58;8.18;;;;;;;13.03;90.24;102389.94;5010361;28;20053;-56
2024/01/30 08:57:23;;;;;;;17.67;8.07;;;;;;;12.99;90.07;102400.72;5014971;28;20045;-60
2024/01/30 08:59:50;;;;;;;21.10;10.90;;;;;;;13.00;90.64;102399.63;5015480;28;20050;-63
2024/01/30 09:02:18;;;;;;;20.20;13.50;;;;;;;13.13;90.19;102404.50;5016789;28;20049;-63
2024/01/30 09:04:45;;;;;;;18.85;8.48;;;;;;;12.78;90.25;102412.25;5009906;28;20100;-62
2024/01/30 09:07:13;;;;;;;18.02;8.43;;;;;;;12.80;91.27;102413.59;5009990;28;20053;-62
2024/01/30 09:09:41;;;;;;;28.60;18.98;;;;;;;12.76;91.67;102425.53;5017475;28;20058;-63
2024/01/30 09:12:11;;;;;;;22.65;9.77;;;;;;;12.76;91.92;102420.78;5007655;28;20060;-63
2024/01/30 09:14:39;;;;;;;25.88;8.52;;;;;;;12.81;91.94;102415.25;5029953;28;20065;-62
2024/01/30 09:17:06;;;;;;;18.98;8.63;;;;;;;12.82;91.53;102424.34;5027128;28;20496;-62
2024/01/30 09:19:34;;;;;;;19.63;9.13;;;;;;;12.83;91.93;102426.84;4999205;28;20062;-62
2024/01/30 09:22:01;;;;;;;18.33;8.88;;;;;;;12.82;91.60;102425.19;5046749;28;20053;-57
2024/01/30 09:24:29;;;;;;;18.60;8.75;;;;;;;12.82;92.16;102421.59;5011191;28;20056;-56
2024/01/30 09:26:56;;;;;;;19.60;9.00;;;;;;;13.00;91.71;102429.22;5012826;28;20054;-54
2024/01/30 09:29:23;;;;;;;19.52;8.25;;;;;;;12.90;91.22;102437.59;5012186;28;20432;-55
2024/01/30 09:31:51;;;;;;;20.77;9.40;;;;;;;12.90;91.88;102438.41;5004325;28;20049;-59
2024/01/30 09:34:18;;;;;;;22.48;9.65;;;;;;;13.06;91.27;102439.16;5012117;28;20053;-58
2024/01/30 09:36:45;;;;;;;24.27;8.52;;;;;;;13.13;91.53;102439.66;5014290;28;20057;-56
2024/01/30 09:39:14;;;;;;;15.93;8.75;;;;;;;13.32;90.72;102438.66;5009954;28;20058;-58
2024/01/30 09:41:49;;;;;;;17.77;8.48;;;;;;;13.02;90.70;102446.38;5044108;28;20049;-56
2024/01/30 09:44:17;;;;;;;20.60;9.02;;;;;;;13.05;91.04;102454.94;5010993;28;20481;-57
2024/01/30 09:46:48;;;;;;;29.75;9.30;;;;;;;13.00;91.38;102454.94;5010529;28;20061;-59
2024/01/30 09:49:16;;;;;;;19.05;8.30;;;;;;;13.02;91.37;102461.03;5009989;28;20045;-54
2024/01/30 09:51:45;;;;;;;;;;;;;;;13.06;91.21;102459.34;5010813;28;20053;-60
2024/01/30 09:54:14;;;;;;;22.58;9.48;;;;;;;13.07;91.72;102457.41;5008722;28;19932;-56
2024/01/30 09:56:41;;;;;;;19.25;9.35;;;;;;;13.08;91.25;102454.34;5008898;28;20090;-60
2024/01/30 09:59:09;;;;;;;23.70;9.63;;;;;;;13.09;91.61;102464.28;5000217;28;20054;-58
2024/01/30 10:01:36;;;;;;;17.30;9.30;;;;;;;13.29;92.92;102466.91;5016951;28;20054;-58
2024/01/30 10:04:05;;;;;;;18.30;8.70;;;;;;;13.36;91.36;102461.88;5036981;28;20050;-57
2024/01/30 10:06:37;;;;;;;22.67;10.68;;;;;;;13.30;91.30;102457.50;5019959;28;20061;-59
2024/01/30 10:09:05;;;;;;;24.25;9.52;;;;;;;13.26;91.01;102461.97;5004369;28;20159;-57
2024/01/30 10:11:32;;;;;;;19.30;8.95;;;;;;;13.37;90.69;102460.75;5017199;28;20054;-58
2024/01/30 10:14:00;;;;;;;20.58;8.82;;;;;;;13.18;90.67;102479.19;5041182;28;20046;-56
2024/01/30 10:16:28;;;;;;;22.17;9.10;;;;;;;13.13;91.15;102481.16;5013555;28;20068;-58
2024/01/30 10:18:55;;;;;;;24.30;8.98;;;;;;;13.09;92.29;102480.09;5005472;28;20054;-57
2024/01/30 10:21:23;;;;;;;18.77;8.45;;;;;;;13.34;91.81;102488.19;5037280;28;20062;-57
2024/01/30 10:23:50;;;;;;;23.33;9.63;;;;;;;13.35;91.15;102484.31;5005891;28;20054;-57
2024/01/30 10:26:17;;;;;;;19.95;9.93;;;;;;;13.35;90.80;102489.84;5037436;28;20058;-53
2024/01/30 10:28:45;;;;;;;20.45;9.45;;;;;;;13.40;90.55;102493.41;5045526;28;20053;-57
2024/01/30 10:31:16;;;;;;;19.70;9.15;;;;;;;13.13;91.24;102498.59;5012195;28;20056;-58
2024/01/30 10:33:45;;;;;;;15.65;9.30;;;;;;;13.27;90.86;102495.97;5010108;28;20050;-57
2024/01/30 10:36:17;;;;;;;22.60;9.48;;;;;;;13.41;90.65;102497.81;5039466;28;20465;-60
2024/01/30 10:38:50;;;;;;;23.88;8.82;;;;;;;13.46;90.01;102488.63;5020164;28;20050;-58
2024/01/30 10:41:21;;;;;;;17.85;8.38;;;;;;;13.38;89.84;102500.34;5012467;28;20085;-57
2024/01/30 10:43:58;;;;;;;23.85;9.02;;;;;;;13.42;89.96;102498.66;5010773;28;20061;-56
2024/01/30 10:46:30;;;;;;;19.95;8.60;;;;;;;13.43;89.69;102503.91;5012532;28;20429;-60
2024/01/30 10:48:58;;;;;;;30.33;9.35;;;;;;;13.44;90.13;102502.78;5014741;28;20108;-60
2024/01/30 10:51:27;;;;;;;21.00;9.48;;;;;;;13.44;90.22;102502.78;5013713;28;20061;-60
2024/01/30 10:53:56;;;;;;;19.23;8.60;;;;;;;13.61;88.93;102502.38;5015353;28;20055;-56
2024/01/30 10:56:25;;;;;;;23.08;9.20;;;;;;;13.56;88.82;102503.22;5012454;28;20042;-55
2024/01/30 10:58:53;;;;;;;23.10;10.20;;;;;;;13.67;88.21;102508.69;5021166;28;20042;-62
2024/01/30 11:01:22;;;;;;;31.17;17.63;;;;;;;13.59;88.58;102501.81;5017199;28;20065;-62
2024/01/30 11:03:54;;;;;;;30.33;15.20;;;;;;;13.80;88.08;102502.47;5013401;28;20049;-63
2024/01/30 11:06:27;;;;;;;24.27;10.57;;;;;;;13.83;87.43;102507.41;5024555;28;20065;-64
2024/01/30 11:09:08;;;;;;;20.25;9.32;;;;;;;13.84;87.03;102500.78;5011119;28;20521;-63
2024/01/30 11:11:51;;;;;;;21.25;8.27;;;;;;;13.62;87.44;102503.16;5043399;28;20046;-62
2024/01/30 11:14:25;;;;;;;31.58;8.20;;;;;;;13.80;87.47;102508.84;5013022;28;20593;-63
2024/01/30 11:16:53;;;;;;;21.90;8.77;;;;;;;13.78;87.00;102511.06;5014976;28;20058;-63
2024/01/30 11:19:27;;;;;;;20.40;7.85;;;;;;;13.80;86.44;102506.06;5013452;28;20050;-63
2024/01/30 11:21:56;;;;;;;21.80;8.15;;;;;;;13.78;86.19;102511.06;5028584;28;20069;-62